CheckWX is a tool to help pilots better visualize weather data.  It is not intended as a substitute for an official pre-flight weather briefing.

19:43:36 UTC

LEGR METAR
Federico Garcia Lorca Airport
Granada, Spain
Current

44 mins ago

LEGR 211900Z 10003KT 7000 -RA FEW020 SCT050 BKN080 11/11 Q1009
Observed
Nov-21 @ 19:00 UTC
Wind
  • 100° at 3 KTS
Visibility
7,000 meters
Flight Rules
MVFR
Conditions
Light Rain
Cloud Levels
  • Few at 2,000' AGL
  • Scattered at 5,000' AGL
  • Broken at 8,000' AGL
Temperature
11°C / 52°F
Dewpoint
11°C / 52°F
Humidity
100%
Altimeter
29.79" Hg
Pressure
1008.92 hPa
Previous

1 hour ago

LEGR 211830Z 00000KT 7000 FEW020 BKN040 BKN050 11/11 Q1009
Observed
Nov-21 @ 18:30 UTC
Visibility
7,000 meters
Flight Rules
MVFR
Cloud Levels
  • Few at 2,000' AGL
  • Broken at 4,000' AGL
  • Broken at 5,000' AGL
Temperature
11°C / 52°F
Dewpoint
11°C / 52°F
Humidity
100%
Altimeter
29.79" Hg
Pressure
1008.92 hPa
Previous

2 hours ago

LEGR 211800Z 00000KT 7000 -DZ SCT020 BKN035 BKN045 11/11 Q1009
Observed
Nov-21 @ 18:00 UTC
Visibility
7,000 meters
Flight Rules
MVFR
Conditions
Light Drizzle
Cloud Levels
  • Scattered at 2,000' AGL
  • Broken at 3,500' AGL
  • Broken at 4,500' AGL
Temperature
11°C / 52°F
Dewpoint
11°C / 52°F
Humidity
100%
Altimeter
29.79" Hg
Pressure
1008.92 hPa